sensor_id;sensor_type;location;lat;lon;timestamp;pressure;altitude;pressure_sealevel;temperature
26158;BMP280;67284;44.782;10.282;2024-02-14T00:00:44;101619.78;;;9.89
26158;BMP280;67284;44.782;10.282;2024-02-14T00:05:36;101622.34;;;9.87
26158;BMP280;67284;44.782;10.282;2024-02-14T00:10:28;101626.66;;;9.87
26158;BMP280;67284;44.782;10.282;2024-02-14T00:15:20;101630.94;;;9.86
26158;BMP280;67284;44.782;10.282;2024-02-14T00:20:12;101633.50;;;9.85
26158;BMP280;67284;44.782;10.282;2024-02-14T00:25:04;101631.78;;;9.84
26158;BMP280;67284;44.782;10.282;2024-02-14T00:29:56;101643.72;;;9.82
26158;BMP280;67284;44.782;10.282;2024-02-14T00:34:48;101639.41;;;9.75
26158;BMP280;67284;44.782;10.282;2024-02-14T00:39:42;101642.03;;;9.80
26158;BMP280;67284;44.782;10.282;2024-02-14T00:44:34;101645.47;;;9.83
26158;BMP280;67284;44.782;10.282;2024-02-14T00:49:25;101647.19;;;9.84
26158;BMP280;67284;44.782;10.282;2024-02-14T00:54:18;101642.03;;;9.81
26158;BMP280;67284;44.782;10.282;2024-02-14T00:59:10;101648.84;;;9.79
26158;BMP280;67284;44.782;10.282;2024-02-14T01:04:02;101651.41;;;9.76
26158;BMP280;67284;44.782;10.282;2024-02-14T01:08:54;101653.97;;;9.73
26158;BMP280;67284;44.782;10.282;2024-02-14T01:13:46;101641.94;;;9.72
26158;BMP280;67284;44.782;10.282;2024-02-14T01:18:38;101647.09;;;9.72
26158;BMP280;67284;44.782;10.282;2024-02-14T01:23:30;101654.81;;;9.75
26158;BMP280;67284;44.782;10.282;2024-02-14T01:28:22;101663.44;;;9.79
26158;BMP280;67284;44.782;10.282;2024-02-14T01:33:14;101657.47;;;9.81
26158;BMP280;67284;44.782;10.282;2024-02-14T01:38:07;101660.06;;;9.84
26158;BMP280;67284;44.782;10.282;2024-02-14T01:42:59;101657.47;;;9.84
26158;BMP280;67284;44.782;10.282;2024-02-14T01:47:50;101649.75;;;9.83
26158;BMP280;67284;44.782;10.282;2024-02-14T01:52:43;101658.28;;;9.79
26158;BMP280;67284;44.782;10.282;2024-02-14T01:57:36;101659.13;;;9.76
26158;BMP280;67284;44.782;10.282;2024-02-14T02:02:29;101648.81;;;9.73
26158;BMP280;67284;44.782;10.282;2024-02-14T02:07:21;101663.38;;;9.70
26158;BMP280;67284;44.782;10.282;2024-02-14T02:12:12;101662.47;;;9.68
26158;BMP280;67284;44.782;10.282;2024-02-14T02:17:05;101667.63;;;9.68
26158;BMP280;67284;44.782;10.282;2024-02-14T02:22:00;101667.59;;;9.66
26158;BMP280;67284;44.782;10.282;2024-02-14T02:26:52;101660.72;;;9.65
26158;BMP280;67284;44.782;10.282;2024-02-14T02:31:44;101659.03;;;9.64
26158;BMP280;67284;44.782;10.282;2024-02-14T02:36:36;101655.59;;;9.65
26158;BMP280;67284;44.782;10.282;2024-02-14T02:41:29;101659.88;;;9.66
26158;BMP280;67284;44.782;10.282;2024-02-14T02:46:21;101663.31;;;9.67
26158;BMP280;67284;44.782;10.282;2024-02-14T02:51:16;101667.59;;;9.66
26158;BMP280;67284;44.782;10.282;2024-02-14T02:56:09;101662.47;;;9.69
26158;BMP280;67284;44.782;10.282;2024-02-14T03:01:01;101657.34;;;9.69
26158;BMP280;67284;44.782;10.282;2024-02-14T03:05:52;101662.47;;;9.69
26158;BMP280;67284;44.782;10.282;2024-02-14T03:10:46;101664.19;;;9.67
26158;BMP280;67284;44.782;10.282;2024-02-14T03:15:38;101670.19;;;9.68
26158;BMP280;67284;44.782;10.282;2024-02-14T03:20:30;101668.50;;;9.68
26158;BMP280;67284;44.782;10.282;2024-02-14T03:25:22;101662.50;;;9.72
26158;BMP280;67284;44.782;10.282;2024-02-14T03:30:15;101671.94;;;9.73
26158;BMP280;67284;44.782;10.282;2024-02-14T03:35:09;101669.38;;;9.73
26158;BMP280;67284;44.782;10.282;2024-02-14T03:40:08;101665.94;;;9.71
26158;BMP280;67284;44.782;10.282;2024-02-14T03:45:00;101678.78;;;9.70
26158;BMP280;67284;44.782;10.282;2024-02-14T03:49:57;101679.63;;;9.67
26158;BMP280;67284;44.782;10.282;2024-02-14T03:54:49;101688.16;;;9.66
26158;BMP280;67284;44.782;10.282;2024-02-14T03:59:42;101690.72;;;9.63
26158;BMP280;67284;44.782;10.282;2024-02-14T04:04:34;101695.00;;;9.63
26158;BMP280;67284;44.782;10.282;2024-02-14T04:09:26;101701.81;;;9.59
26158;BMP280;67284;44.782;10.282;2024-02-14T04:14:18;101696.66;;;9.59
26158;BMP280;67284;44.782;10.282;2024-02-14T04:19:10;101706.09;;;9.59
26158;BMP280;67284;44.782;10.282;2024-02-14T04:24:04;101715.53;;;9.61
26158;BMP280;67284;44.782;10.282;2024-02-14T04:28:56;101706.13;;;9.62
26158;BMP280;67284;44.782;10.282;2024-02-14T04:33:48;101701.00;;;9.63
26158;BMP280;67284;44.782;10.282;2024-02-14T04:38:44;101709.53;;;9.62
26158;BMP280;67284;44.782;10.282;2024-02-14T04:43:36;101701.81;;;9.62
26158;BMP280;67284;44.782;10.282;2024-02-14T04:48:27;101710.44;;;9.64
26158;BMP280;67284;44.782;10.282;2024-02-14T04:53:19;101723.31;;;9.67
26158;BMP280;67284;44.782;10.282;2024-02-14T04:58:11;101723.31;;;9.69
26158;BMP280;67284;44.782;10.282;2024-02-14T05:03:03;101724.13;;;9.63
26158;BMP280;67284;44.782;10.282;2024-02-14T05:07:55;101724.91;;;9.56
26158;BMP280;67284;44.782;10.282;2024-02-14T05:12:47;101730.97;;;9.60
26158;BMP280;67284;44.782;10.282;2024-02-14T05:17:42;101739.47;;;9.57
26158;BMP280;67284;44.782;10.282;2024-02-14T05:22:38;101740.28;;;9.50
26158;BMP280;67284;44.782;10.282;2024-02-14T05:27:30;101749.63;;;9.47
26158;BMP280;67284;44.782;10.282;2024-02-14T05:32:22;101753.06;;;9.44
26158;BMP280;67284;44.782;10.282;2024-02-14T05:37:15;101749.56;;;9.41
26158;BMP280;67284;44.782;10.282;2024-02-14T05:42:07;101755.63;;;9.44
26158;BMP280;67284;44.782;10.282;2024-02-14T05:46:59;101764.19;;;9.46
26158;BMP280;67284;44.782;10.282;2024-02-14T05:51:51;101748.72;;;9.39
26158;BMP280;67284;44.782;10.282;2024-02-14T05:56:45;101749.53;;;9.36
26158;BMP280;67284;44.782;10.282;2024-02-14T06:01:37;101753.84;;;9.39
26158;BMP280;67284;44.782;10.282;2024-02-14T06:06:29;101751.31;;;9.43
26158;BMP280;67284;44.782;10.282;2024-02-14T06:11:21;101759.88;;;9.42
26158;BMP280;67284;44.782;10.282;2024-02-14T06:16:13;101780.38;;;9.39
26158;BMP280;67284;44.782;10.282;2024-02-14T06:21:05;101782.94;;;9.39
26158;BMP280;67284;44.782;10.282;2024-02-14T06:25:58;101781.28;;;9.43
26158;BMP280;67284;44.782;10.282;2024-02-14T06:30:50;101793.22;;;9.39
26158;BMP280;67284;44.782;10.282;2024-02-14T06:35:42;101800.09;;;9.40
26158;BMP280;67284;44.782;10.282;2024-02-14T06:40:34;101819.75;;;9.38
26158;BMP280;67284;44.782;10.282;2024-02-14T06:45:26;101819.69;;;9.32
26158;BMP280;67284;44.782;10.282;2024-02-14T06:50:19;101831.53;;;9.23
26158;BMP280;67284;44.782;10.282;2024-02-14T06:55:11;101834.09;;;9.22
26158;BMP280;67284;44.782;10.282;2024-02-14T07:00:04;101849.50;;;9.20
26158;BMP280;67284;44.782;10.282;2024-02-14T07:04:58;101841.75;;;9.19
26158;BMP280;67284;44.782;10.282;2024-02-14T07:09:50;101856.31;;;9.18
26158;BMP280;67284;44.782;10.282;2024-02-14T07:14:42;101860.66;;;9.22
26158;BMP280;67284;44.782;10.282;2024-02-14T07:19:34;101859.00;;;9.27
26158;BMP280;67284;44.782;10.282;2024-02-14T07:24:26;101864.09;;;9.23
26158;BMP280;67284;44.782;10.282;2024-02-14T07:29:17;101871.00;;;9.27
26158;BMP280;67284;44.782;10.282;2024-02-14T07:34:10;101873.59;;;9.28
26158;BMP280;67284;44.782;10.282;2024-02-14T07:39:03;101882.16;;;9.30
26158;BMP280;67284;44.782;10.282;2024-02-14T07:43:55;101894.16;;;9.31
26158;BMP280;67284;44.782;10.282;2024-02-14T07:48:48;101902.75;;;9.33
26158;BMP280;67284;44.782;10.282;2024-02-14T07:53:41;101903.66;;;9.36
26158;BMP280;67284;44.782;10.282;2024-02-14T07:58:33;101900.28;;;9.39
26158;BMP280;67284;44.782;10.282;2024-02-14T08:03:24;101912.28;;;9.41
26158;BMP280;67284;44.782;10.282;2024-02-14T08:08:17;101925.19;;;9.44
26158;BMP280;67284;44.782;10.282;2024-02-14T08:13:09;101916.63;;;9.45
26158;BMP280;67284;44.782;10.282;2024-02-14T08:18:03;101919.22;;;9.48
26158;BMP280;67284;44.782;10.282;2024-02-14T08:23:00;101932.94;;;9.47
26158;BMP280;67284;44.782;10.282;2024-02-14T08:27:53;101910.63;;;9.43
26158;BMP280;67284;44.782;10.282;2024-02-14T08:32:45;101912.28;;;9.41
26158;BMP280;67284;44.782;10.282;2024-02-14T08:37:37;101908.03;;;9.43
26158;BMP280;67284;44.782;10.282;2024-02-14T08:42:29;101910.66;;;9.46
26158;BMP280;67284;44.782;10.282;2024-02-14T08:47:21;101920.97;;;9.49
26158;BMP280;67284;44.782;10.282;2024-02-14T08:52:13;101917.59;;;9.53
26158;BMP280;67284;44.782;10.282;2024-02-14T08:57:05;101919.34;;;9.54
26158;BMP280;67284;44.782;10.282;2024-02-14T09:01:57;101924.41;;;9.51
26158;BMP280;67284;44.782;10.282;2024-02-14T09:06:49;101923.56;;;9.52
26158;BMP280;67284;44.782;10.282;2024-02-14T09:11:41;101924.50;;;9.57
26158;BMP280;67284;44.782;10.282;2024-02-14T09:16:33;101928.00;;;9.62
26158;BMP280;67284;44.782;10.282;2024-02-14T09:21:25;101928.03;;;9.65
26158;BMP280;67284;44.782;10.282;2024-02-14T09:26:19;101927.22;;;9.68
26158;BMP280;67284;44.782;10.282;2024-02-14T09:31:11;101929.81;;;9.71
26158;BMP280;67284;44.782;10.282;2024-02-14T09:36:04;101927.28;;;9.74
26158;BMP280;67284;44.782;10.282;2024-02-14T09:41:05;101924.81;;;9.81
26158;BMP280;67284;44.782;10.282;2024-02-14T09:45:58;101925.72;;;9.84
26158;BMP280;67284;44.782;10.282;2024-02-14T09:50:50;101924.91;;;9.90
26158;BMP280;67284;44.782;10.282;2024-02-14T09:55:46;101927.56;;;9.94
26158;BMP280;67284;44.782;10.282;2024-02-14T10:00:38;101919.06;;;9.98
26158;BMP280;67284;44.782;10.282;2024-02-14T10:05:29;101914.81;;;10.00
26158;BMP280;67284;44.782;10.282;2024-02-14T10:10:21;101914.81;;;10.02
26158;BMP280;67284;44.782;10.282;2024-02-14T10:15:13;101914.81;;;10.02
26158;BMP280;67284;44.782;10.282;2024-02-14T10:20:06;101915.72;;;10.05
26158;BMP280;67284;44.782;10.282;2024-02-14T10:24:59;101923.44;;;10.07
26158;BMP280;67284;44.782;10.282;2024-02-14T10:29:51;101911.47;;;10.09
26158;BMP280;67284;44.782;10.282;2024-02-14T10:34:44;101898.63;;;10.10
26158;BMP280;67284;44.782;10.282;2024-02-14T10:39:40;101900.41;;;10.14
26158;BMP280;67284;44.782;10.282;2024-02-14T10:44:34;101903.84;;;10.16
26158;BMP280;67284;44.782;10.282;2024-02-14T10:49:27;101900.47;;;10.22
26158;BMP280;67284;44.782;10.282;2024-02-14T10:54:20;101894.47;;;10.23
26158;BMP280;67284;44.782;10.282;2024-02-14T10:59:17;101887.63;;;10.25
26158;BMP280;67284;44.782;10.282;2024-02-14T11:04:11;101884.22;;;10.26
26158;BMP280;67284;44.782;10.282;2024-02-14T11:09:04;101888.50;;;10.28
26158;BMP280;67284;44.782;10.282;2024-02-14T11:14:02;101885.94;;;10.30
26158;BMP280;67284;44.782;10.282;2024-02-14T11:19:09;101890.34;;;10.39
26158;BMP280;67284;44.782;10.282;2024-02-14T11:24:06;101886.09;;;10.43
26158;BMP280;67284;44.782;10.282;2024-02-14T11:29:03;101886.09;;;10.44
26158;BMP280;67284;44.782;10.282;2024-02-14T11:33:55;101871.59;;;10.51
26158;BMP280;67284;44.782;10.282;2024-02-14T11:38:48;101873.41;;;10.62
26158;BMP280;67284;44.782;10.282;2024-02-14T11:43:50;101881.13;;;10.65
26158;BMP280;67284;44.782;10.282;2024-02-14T11:48:42;101886.31;;;10.68
26158;BMP280;67284;44.782;10.282;2024-02-14T11:53:39;101872.59;;;10.69
26158;BMP280;67284;44.782;10.282;2024-02-14T11:58:32;101861.50;;;10.76
26158;BMP280;67284;44.782;10.282;2024-02-14T12:03:26;101854.72;;;10.90
26158;BMP280;67284;44.782;10.282;2024-02-14T12:08:18;101852.22;;;11.03
26158;BMP280;67284;44.782;10.282;2024-02-14T12:13:11;101844.50;;;11.03
26158;BMP280;67284;44.782;10.282;2024-02-14T12:18:05;101829.13;;;11.11
26158;BMP280;67284;44.782;10.282;2024-02-14T12:22:57;101823.13;;;11.18
26158;BMP280;67284;44.782;10.282;2024-02-14T12:27:50;101822.34;;;11.31
26158;BMP280;67284;44.782;10.282;2024-02-14T12:32:43;101810.28;;;11.21
26158;BMP280;67284;44.782;10.282;2024-02-14T12:37:35;101803.31;;;11.08
26158;BMP280;67284;44.782;10.282;2024-02-14T12:42:27;101796.44;;;11.02
26158;BMP280;67284;44.782;10.282;2024-02-14T12:47:19;101799.03;;;11.10
26158;BMP280;67284;44.782;10.282;2024-02-14T12:52:13;101789.66;;;11.24
26158;BMP280;67284;44.782;10.282;2024-02-14T12:57:05;101794.81;;;11.24
26158;BMP280;67284;44.782;10.282;2024-02-14T13:01:58;101789.69;;;11.31
26158;BMP280;67284;44.782;10.282;2024-02-14T13:06:50;101783.72;;;11.44
26158;BMP280;67284;44.782;10.282;2024-02-14T13:11:42;101788.84;;;11.34
26158;BMP280;67284;44.782;10.282;2024-02-14T13:16:34;101786.28;;;11.38
26158;BMP280;67284;44.782;10.282;2024-02-14T13:21:26;101784.59;;;11.46
26158;BMP280;67284;44.782;10.282;2024-02-14T13:26:18;101781.13;;;11.42
26158;BMP280;67284;44.782;10.282;2024-02-14T13:31:10;101778.56;;;11.41
26158;BMP280;67284;44.782;10.282;2024-02-14T13:36:02;101773.38;;;11.37
26158;BMP280;67284;44.782;10.282;2024-02-14T13:40:55;101769.19;;;11.58
26158;BMP280;67284;44.782;10.282;2024-02-14T13:45:47;101777.75;;;11.51
26158;BMP280;67284;44.782;10.282;2024-02-14T13:50:40;101778.66;;;11.65
26158;BMP280;67284;44.782;10.282;2024-02-14T13:55:33;101782.19;;;11.89
26158;BMP280;67284;44.782;10.282;2024-02-14T14:00:25;101772.72;;;12.01
26158;BMP280;67284;44.782;10.282;2024-02-14T14:05:17;101763.28;;;11.96
26158;BMP280;67284;44.782;10.282;2024-02-14T14:10:12;101774.44;;;11.98
26158;BMP280;67284;44.782;10.282;2024-02-14T14:15:04;101760.69;;;12.15
26158;BMP280;67284;44.782;10.282;2024-02-14T14:19:56;101761.53;;;12.28
26158;BMP280;67284;44.782;10.282;2024-02-14T14:24:48;101754.66;;;12.19
26158;BMP280;67284;44.782;10.282;2024-02-14T14:29:41;101755.53;;;12.11
26158;BMP280;67284;44.782;10.282;2024-02-14T14:34:36;101753.81;;;11.98
26158;BMP280;67284;44.782;10.282;2024-02-14T14:39:28;101748.63;;;12.04
26158;BMP280;67284;44.782;10.282;2024-02-14T14:44:21;101745.22;;;12.02
26158;BMP280;67284;44.782;10.282;2024-02-14T14:49:13;101739.16;;;12.00
26158;BMP280;67284;44.782;10.282;2024-02-14T14:54:05;101744.34;;;12.00
26158;BMP280;67284;44.782;10.282;2024-02-14T14:58:57;101746.91;;;11.97
26158;BMP280;67284;44.782;10.282;2024-02-14T15:03:50;101746.91;;;11.94
26158;BMP280;67284;44.782;10.282;2024-02-14T15:08:44;101752.91;;;11.86
26158;BMP280;67284;44.782;10.282;2024-02-14T15:13:37;101758.94;;;11.82
26158;BMP280;67284;44.782;10.282;2024-02-14T15:18:29;101760.66;;;11.78
26158;BMP280;67284;44.782;10.282;2024-02-14T15:23:21;101756.34;;;11.80
26158;BMP280;67284;44.782;10.282;2024-02-14T15:28:12;101762.34;;;11.78
26158;BMP280;67284;44.782;10.282;2024-02-14T15:33:09;101764.97;;;11.79
26158;BMP280;67284;44.782;10.282;2024-02-14T15:38:20;101761.50;;;11.83
26158;BMP280;67284;44.782;10.282;2024-02-14T15:43:13;101766.66;;;11.85
26158;BMP280;67284;44.782;10.282;2024-02-14T15:48:05;101760.66;;;11.86
26158;BMP280;67284;44.782;10.282;2024-02-14T15:52:58;101768.41;;;11.81
26158;BMP280;67284;44.782;10.282;2024-02-14T15:57:50;101769.25;;;11.79
26158;BMP280;67284;44.782;10.282;2024-02-14T16:02:41;101775.25;;;11.76
26158;BMP280;67284;44.782;10.282;2024-02-14T16:07:33;101766.66;;;11.73
26158;BMP280;67284;44.782;10.282;2024-02-14T16:12:25;101764.09;;;11.68
26158;BMP280;67284;44.782;10.282;2024-02-14T16:17:18;101768.34;;;11.63
26158;BMP280;67284;44.782;10.282;2024-02-14T16:22:10;101761.47;;;11.58
26158;BMP280;67284;44.782;10.282;2024-02-14T16:27:07;101766.59;;;11.53
26158;BMP280;67284;44.782;10.282;2024-02-14T16:31:59;101780.28;;;11.46
26158;BMP280;67284;44.782;10.282;2024-02-14T16:36:51;101790.59;;;11.42
26158;BMP280;67284;44.782;10.282;2024-02-14T16:41:43;101788.00;;;11.38
26158;BMP280;67284;44.782;10.282;2024-02-14T16:46:35;101795.72;;;11.35
26158;BMP280;67284;44.782;10.282;2024-02-14T16:51:27;101791.41;;;11.32
26158;BMP280;67284;44.782;10.282;2024-02-14T16:56:19;101787.09;;;11.28
26158;BMP280;67284;44.782;10.282;2024-02-14T17:01:11;101793.09;;;11.26
26158;BMP280;67284;44.782;10.282;2024-02-14T17:06:03;101798.25;;;11.23
26158;BMP280;67284;44.782;10.282;2024-02-14T17:10:56;101807.69;;;11.21
26158;BMP280;67284;44.782;10.282;2024-02-14T17:15:48;101811.09;;;11.18
26158;BMP280;67284;44.782;10.282;2024-02-14T17:20:39;101811.09;;;11.17
26158;BMP280;67284;44.782;10.282;2024-02-14T17:25:34;101823.97;;;11.15
26158;BMP280;67284;44.782;10.282;2024-02-14T17:30:29;101829.97;;;11.11
26158;BMP280;67284;44.782;10.282;2024-02-14T17:35:21;101828.22;;;11.09
26158;BMP280;67284;44.782;10.282;2024-02-14T17:40:13;101839.38;;;11.06
26158;BMP280;67284;44.782;10.282;2024-02-14T17:45:05;101838.50;;;11.03
26158;BMP280;67284;44.782;10.282;2024-02-14T17:49:58;101837.66;;;11.01
26158;BMP280;67284;44.782;10.282;2024-02-14T17:54:50;101835.91;;;10.98
26158;BMP280;67284;44.782;10.282;2024-02-14T17:59:42;101844.47;;;10.97
26158;BMP280;67284;44.782;10.282;2024-02-14T18:04:35;101852.19;;;10.96
26158;BMP280;67284;44.782;10.282;2024-02-14T18:09:27;101853.91;;;10.92
26158;BMP280;67284;44.782;10.282;2024-02-14T18:14:19;101854.75;;;10.93
26158;BMP280;67284;44.782;10.282;2024-02-14T18:19:11;101851.34;;;10.95
26158;BMP280;67284;44.782;10.282;2024-02-14T18:24:03;101859.06;;;10.94
26158;BMP280;67284;44.782;10.282;2024-02-14T18:28:57;101853.03;;;10.92
26158;BMP280;67284;44.782;10.282;2024-02-14T18:33:49;101853.84;;;10.87
26158;BMP280;67284;44.782;10.282;2024-02-14T18:38:41;101854.72;;;10.87
26158;BMP280;67284;44.782;10.282;2024-02-14T18:43:33;101867.59;;;10.90
26158;BMP280;67284;44.782;10.282;2024-02-14T18:48:25;101865.84;;;10.85
26158;BMP280;67284;44.782;10.282;2024-02-14T18:53:17;101863.28;;;10.86
26158;BMP280;67284;44.782;10.282;2024-02-14T18:58:09;101858.13;;;10.86
26158;BMP280;67284;44.782;10.282;2024-02-14T19:03:01;101858.94;;;10.78
26158;BMP280;67284;44.782;10.282;2024-02-14T19:07:54;101851.19;;;10.76
26158;BMP280;67284;44.782;10.282;2024-02-14T19:12:46;101852.94;;;10.77
26158;BMP280;67284;44.782;10.282;2024-02-14T19:17:38;101855.50;;;10.77
26158;BMP280;67284;44.782;10.282;2024-02-14T19:22:30;101857.19;;;10.75
26158;BMP280;67284;44.782;10.282;2024-02-14T19:27:23;101848.59;;;10.73
26158;BMP280;67284;44.782;10.282;2024-02-14T19:32:15;101846.03;;;10.72
26158;BMP280;67284;44.782;10.282;2024-02-14T19:37:07;101852.03;;;10.72
26158;BMP280;67284;44.782;10.282;2024-02-14T19:42:00;101850.28;;;10.71
26158;BMP280;67284;44.782;10.282;2024-02-14T19:46:51;101859.72;;;10.69
26158;BMP280;67284;44.782;10.282;2024-02-14T19:51:43;101876.84;;;10.66
26158;BMP280;67284;44.782;10.282;2024-02-14T19:56:35;101875.97;;;10.62
26158;BMP280;67284;44.782;10.282;2024-02-14T20:01:27;101885.41;;;10.62
26158;BMP280;67284;44.782;10.282;2024-02-14T20:06:19;101887.09;;;10.60
26158;BMP280;67284;44.782;10.282;2024-02-14T20:11:11;101887.94;;;10.57
26158;BMP280;67284;44.782;10.282;2024-02-14T20:16:03;101899.09;;;10.56
26158;BMP280;67284;44.782;10.282;2024-02-14T20:20:55;101896.50;;;10.53
26158;BMP280;67284;44.782;10.282;2024-02-14T20:25:47;101896.44;;;10.52
26158;BMP280;67284;44.782;10.282;2024-02-14T20:30:39;101892.16;;;10.49
26158;BMP280;67284;44.782;10.282;2024-02-14T20:35:31;101884.44;;;10.48
26158;BMP280;67284;44.782;10.282;2024-02-14T20:40:23;101892.16;;;10.48
26158;BMP280;67284;44.782;10.282;2024-02-14T20:45:16;101893.00;;;10.47
26158;BMP280;67284;44.782;10.282;2024-02-14T20:50:09;101902.44;;;10.46
26158;BMP280;67284;44.782;10.282;2024-02-14T20:55:02;101901.53;;;10.44
26158;BMP280;67284;44.782;10.282;2024-02-14T20:59:53;101901.56;;;10.46
26158;BMP280;67284;44.782;10.282;2024-02-14T21:04:46;101898.09;;;10.42
26158;BMP280;67284;44.782;10.282;2024-02-14T21:09:38;101903.22;;;10.39
26158;BMP280;67284;44.782;10.282;2024-02-14T21:14:30;101898.91;;;10.38
26158;BMP280;67284;44.782;10.282;2024-02-14T21:19:25;101896.31;;;10.34
26158;BMP280;67284;44.782;10.282;2024-02-14T21:24:17;101889.41;;;10.32
26158;BMP280;67284;44.782;10.282;2024-02-14T21:29:10;101888.59;;;10.34
26158;BMP280;67284;44.782;10.282;2024-02-14T21:34:01;101884.28;;;10.35
26158;BMP280;67284;44.782;10.282;2024-02-14T21:38:54;101885.13;;;10.32
26158;BMP280;67284;44.782;10.282;2024-02-14T21:43:46;101880.78;;;10.27
26158;BMP280;67284;44.782;10.282;2024-02-14T21:48:37;101878.22;;;10.28
26158;BMP280;67284;44.782;10.282;2024-02-14T21:53:30;101878.22;;;10.28
26158;BMP280;67284;44.782;10.282;2024-02-14T21:58:21;101875.63;;;10.25
26158;BMP280;67284;44.782;10.282;2024-02-14T22:03:13;101876.50;;;10.27
26158;BMP280;67284;44.782;10.282;2024-02-14T22:08:05;101877.38;;;10.31
26158;BMP280;67284;44.782;10.282;2024-02-14T22:12:57;101871.38;;;10.30
26158;BMP280;67284;44.782;10.282;2024-02-14T22:17:50;101877.38;;;10.31
26158;BMP280;67284;44.782;10.282;2024-02-14T22:22:42;101876.53;;;10.29
26158;BMP280;67284;44.782;10.282;2024-02-14T22:27:35;101875.66;;;10.30
26158;BMP280;67284;44.782;10.282;2024-02-14T22:32:27;101870.50;;;10.30
26158;BMP280;67284;44.782;10.282;2024-02-14T22:37:19;101869.66;;;10.31
26158;BMP280;67284;44.782;10.282;2024-02-14T22:42:11;101856.81;;;10.34
26158;BMP280;67284;44.782;10.282;2024-02-14T22:47:04;101861.97;;;10.34
26158;BMP280;67284;44.782;10.282;2024-02-14T22:51:59;101869.72;;;10.35
26158;BMP280;67284;44.782;10.282;2024-02-14T22:56:51;101867.13;;;10.35
26158;BMP280;67284;44.782;10.282;2024-02-14T23:01:43;101873.16;;;10.36
26158;BMP280;67284;44.782;10.282;2024-02-14T23:06:35;101856.81;;;10.34
26158;BMP280;67284;44.782;10.282;2024-02-14T23:11:36;101861.94;;;10.31
26158;BMP280;67284;44.782;10.282;2024-02-14T23:16:28;101861.13;;;10.32
26158;BMP280;67284;44.782;10.282;2024-02-14T23:21:20;101859.38;;;10.31
26158;BMP280;67284;44.782;10.282;2024-02-14T23:26:13;101852.50;;;10.30
26158;BMP280;67284;44.782;10.282;2024-02-14T23:31:05;101850.78;;;10.29
26158;BMP280;67284;44.782;10.282;2024-02-14T23:35:58;101849.91;;;10.27
26158;BMP280;67284;44.782;10.282;2024-02-14T23:40:50;101861.03;;;10.23
26158;BMP280;67284;44.782;10.282;2024-02-14T23:45:42;101863.56;;;10.21
26158;BMP280;67284;44.782;10.282;2024-02-14T23:50:34;101865.25;;;10.18
26158;BMP280;67284;44.782;10.282;2024-02-14T23:55:26;101861.75;;;10.11
